createdAt,value
2018-06-05T00:01:36.004Z,24.30
2018-06-05T00:04:04.385Z,24.20
2018-06-05T00:06:32.785Z,24.10
2018-06-05T00:09:01.196Z,24.00
2018-06-05T00:11:29.551Z,24.10
2018-06-05T00:13:57.771Z,24.10
2018-06-05T00:16:26.411Z,24.10
2018-06-05T00:18:54.814Z,23.90
2018-06-05T00:21:23.457Z,24.00
2018-06-05T00:23:52.459Z,23.90
2018-06-05T00:26:20.748Z,23.90
2018-06-05T00:28:48.995Z,23.80
2018-06-05T00:31:17.262Z,23.60
2018-06-05T00:33:45.596Z,23.40
2018-06-05T00:36:13.825Z,23.50
2018-06-05T00:38:42.131Z,23.40
2018-06-05T00:41:10.451Z,23.50
2018-06-05T00:43:38.834Z,23.40
2018-06-05T00:46:07.659Z,23.30
2018-06-05T00:48:36.087Z,23.30
2018-06-05T00:51:15.547Z,23.30
2018-06-05T00:53:45.034Z,23.20
2018-06-05T00:58:43.043Z,23.30
2018-06-05T01:01:11.364Z,23.20
2018-06-05T01:03:39.639Z,23.30
2018-06-05T01:06:08.885Z,23.30
2018-06-05T01:08:37.406Z,23.30
2018-06-05T01:11:05.655Z,23.30
2018-06-05T01:13:34.015Z,23.30
2018-06-05T01:16:02.263Z,23.30
2018-06-05T01:18:31.073Z,23.20
2018-06-05T01:20:59.318Z,23.20
2018-06-05T01:23:27.546Z,23.00
2018-06-05T01:25:55.824Z,23.10
2018-06-05T01:28:24.029Z,23.00
2018-06-05T01:30:53.422Z,22.90
2018-06-05T01:33:21.707Z,22.90
2018-06-05T01:35:49.953Z,22.90
2018-06-05T01:38:18.261Z,22.90
2018-06-05T01:40:46.525Z,22.90
2018-06-05T01:43:14.788Z,22.90
2018-06-05T01:45:43.003Z,22.80
2018-06-05T01:48:11.278Z,22.80
2018-06-05T01:50:39.599Z,23.10
2018-06-05T01:53:07.967Z,23.00
2018-06-05T01:55:36.196Z,22.80
2018-06-05T01:58:04.451Z,22.90
2018-06-05T02:00:32.929Z,22.90
2018-06-05T02:03:02.177Z,22.90
2018-06-05T02:05:30.436Z,22.70
2018-06-05T02:07:58.720Z,22.70
2018-06-05T02:10:26.973Z,22.70
2018-06-05T02:12:55.358Z,22.90
2018-06-05T02:15:24.303Z,22.70
2018-06-05T02:17:52.559Z,22.50
2018-06-05T02:20:20.821Z,22.50
2018-06-05T02:22:49.062Z,22.70
2018-06-05T02:25:17.322Z,22.70
2018-06-05T02:27:46.087Z,22.70
2018-06-05T02:30:15.046Z,22.80
2018-06-05T02:32:43.246Z,22.70
2018-06-05T02:35:11.494Z,22.60
2018-06-05T02:37:39.773Z,22.70
2018-06-05T02:40:08.082Z,22.90
2018-06-05T02:42:36.412Z,22.80
2018-06-05T02:45:04.763Z,22.80
2018-06-05T02:47:33.007Z,22.70
2018-06-05T02:50:01.465Z,22.80
2018-06-05T02:52:29.810Z,22.90
2018-06-05T02:54:58.105Z,23.00
2018-06-05T02:57:26.341Z,23.00
2018-06-05T02:59:54.595Z,23.10
2018-06-05T03:02:22.962Z,23.10
2018-06-05T03:04:51.183Z,23.10
2018-06-05T03:07:19.438Z,23.00
2018-06-05T03:09:47.690Z,22.90
2018-06-05T03:12:16.630Z,22.90
2018-06-05T03:14:45.113Z,22.90
2018-06-05T03:17:13.339Z,23.00
2018-06-05T03:19:41.590Z,22.70
2018-06-05T03:22:09.841Z,22.70
2018-06-05T03:24:38.590Z,22.70
2018-06-05T03:27:06.877Z,22.80
2018-06-05T03:29:35.254Z,22.70
2018-06-05T03:32:03.522Z,22.60
2018-06-05T03:34:31.778Z,22.60
2018-06-05T03:37:00.402Z,22.60
2018-06-05T03:39:28.658Z,22.60
2018-06-05T03:41:56.910Z,22.60
2018-06-05T03:44:25.213Z,22.60
2018-06-05T03:46:54.073Z,22.60
2018-06-05T03:49:22.354Z,22.60
2018-06-05T03:51:50.602Z,22.70
2018-06-05T03:54:18.854Z,22.90
2018-06-05T03:56:47.098Z,23.10
2018-06-05T03:59:15.389Z,23.20
2018-06-05T04:01:43.671Z,23.20
2018-06-05T04:04:12.042Z,23.30
2018-06-05T04:06:40.281Z,23.30
2018-06-05T04:09:08.590Z,23.30
2018-06-05T04:11:36.958Z,23.40
2018-06-05T04:14:05.226Z,23.50
2018-06-05T04:16:33.489Z,23.50
2018-06-05T04:19:01.854Z,23.50
2018-06-05T04:21:30.690Z,23.40
2018-06-05T04:23:58.946Z,23.40
2018-06-05T04:26:27.213Z,23.40
2018-06-05T04:28:55.470Z,23.40
2018-06-05T04:31:23.825Z,23.50
2018-06-05T04:33:52.706Z,23.40
2018-06-05T04:36:20.967Z,23.50
2018-06-05T04:38:49.193Z,23.40
2018-06-05T04:41:17.549Z,23.40
2018-06-05T04:43:46.074Z,23.30
2018-06-05T04:46:14.717Z,23.30
2018-06-05T04:48:42.941Z,23.30
2018-06-05T04:51:11.273Z,23.40
2018-06-05T04:53:39.526Z,23.20
2018-06-05T04:56:07.761Z,23.30
2018-06-05T04:58:36.128Z,23.40
2018-06-05T05:01:04.448Z,23.40
2018-06-05T05:03:32.693Z,23.50
2018-06-05T05:06:01.005Z,23.50
2018-06-05T05:08:29.954Z,23.30
2018-06-05T05:10:58.166Z,23.40
2018-06-05T05:13:26.413Z,23.40
2018-06-05T05:15:54.693Z,23.40
2018-06-05T05:18:23.093Z,23.60
2018-06-05T05:20:51.361Z,23.60
2018-06-05T05:23:19.677Z,23.80
2018-06-05T05:25:47.926Z,23.90
2018-06-05T05:28:16.395Z,24.10
2018-06-05T05:30:44.748Z,24.30
2018-06-05T05:33:13.333Z,24.40
2018-06-05T05:35:41.653Z,24.50
2018-06-05T05:38:09.921Z,24.70
2018-06-05T05:40:38.693Z,24.80
2018-06-05T05:43:07.001Z,24.90
2018-06-05T05:45:35.355Z,25.20
2018-06-05T05:48:03.603Z,25.30
2018-06-05T05:50:31.845Z,25.20
2018-06-05T05:53:00.274Z,25.20
2018-06-05T05:55:28.574Z,25.30
2018-06-05T05:57:56.819Z,25.50
2018-06-05T06:00:25.118Z,25.60
2018-06-05T06:02:53.469Z,25.60
2018-06-05T06:05:21.726Z,25.80
2018-06-05T06:07:50.149Z,25.90
2018-06-05T06:10:18.441Z,25.80
2018-06-05T06:12:46.682Z,25.90
2018-06-05T06:15:15.618Z,25.90
2018-06-05T06:17:44.020Z,26.10
2018-06-05T06:20:12.495Z,26.10
2018-06-05T06:22:40.728Z,26.10
2018-06-05T06:25:09.219Z,26.10
2018-06-05T06:27:37.503Z,26.20
2018-06-05T06:30:05.776Z,26.10
2018-06-05T06:32:34.038Z,26.30
2018-06-05T06:35:02.350Z,26.30
2018-06-05T06:37:30.866Z,26.50
2018-06-05T06:39:59.547Z,26.70
2018-06-05T06:42:27.765Z,26.60
2018-06-05T06:44:56.012Z,26.80
2018-06-05T06:47:24.282Z,26.80
2018-06-05T06:49:52.705Z,26.90
2018-06-05T06:52:21.009Z,27.10
2018-06-05T06:54:49.337Z,27.00
2018-06-05T06:57:17.573Z,27.20
2018-06-05T06:59:45.938Z,27.30
2018-06-05T07:02:14.302Z,27.30
2018-06-05T07:04:42.590Z,27.30
2018-06-05T07:07:10.847Z,27.50
2018-06-05T07:09:39.163Z,27.60
2018-06-05T07:12:07.502Z,27.80
2018-06-05T07:14:35.754Z,28.00
2018-06-05T07:19:32.016Z,28.80
2018-06-05T07:22:00.557Z,29.00
2018-06-05T07:24:28.798Z,29.10
2018-06-05T07:26:57.065Z,29.30
2018-06-05T07:29:25.437Z,29.30
2018-06-05T07:31:53.804Z,29.60
2018-06-05T07:34:22.057Z,29.60
2018-06-05T07:36:50.326Z,29.70
2018-06-05T07:39:18.574Z,29.90
2018-06-05T07:41:46.857Z,29.80
2018-06-05T07:44:15.135Z,30.10
2018-06-05T07:46:43.391Z,30.50
2018-06-05T07:49:11.657Z,31.10
2018-06-05T07:51:39.909Z,31.90
2018-06-05T07:54:08.462Z,32.80
2018-06-05T07:56:36.774Z,34.20
2018-06-05T07:59:05.056Z,36.00
2018-06-05T08:01:33.301Z,37.90
2018-06-05T08:04:02.138Z,39.80
2018-06-05T08:06:30.494Z,41.10
2018-06-05T08:08:58.731Z,42.00
2018-06-05T08:11:26.954Z,42.20
2018-06-05T08:13:55.190Z,43.00
2018-06-05T08:16:23.504Z,43.90
2018-06-05T08:18:51.866Z,44.70
2018-06-05T08:21:20.062Z,45.30
2018-06-05T08:23:48.366Z,46.40
2018-06-05T08:26:16.625Z,46.90
2018-06-05T08:28:44.907Z,47.40
2018-06-05T08:31:13.207Z,48.30
2018-06-05T08:33:41.507Z,48.80
2018-06-05T08:36:09.885Z,49.30
2018-06-05T08:38:39.158Z,49.50
2018-06-05T08:41:07.509Z,49.40
2018-06-05T08:46:03.779Z,50.00
2018-06-05T08:48:32.073Z,50.20
2018-06-05T08:51:00.683Z,50.60
2018-06-05T08:53:28.921Z,51.30
2018-06-05T08:55:57.186Z,51.80
2018-06-05T08:58:25.448Z,51.80
2018-06-05T09:00:53.740Z,52.00
2018-06-05T09:03:22.091Z,52.00
2018-06-05T09:05:50.329Z,51.80
2018-06-05T09:08:18.587Z,52.00
2018-06-05T09:10:47.543Z,52.40
2018-06-05T09:13:15.925Z,53.10
2018-06-05T09:15:44.535Z,53.00
2018-06-05T09:18:12.810Z,52.90
2018-06-05T09:20:41.057Z,53.30
2018-06-05T09:25:38.466Z,53.90
2018-06-05T09:28:06.731Z,54.60
2018-06-05T09:30:35.063Z,55.00
2018-06-05T09:33:03.312Z,54.70
2018-06-05T09:35:32.212Z,54.70
2018-06-05T09:38:00.530Z,54.90
2018-06-05T09:40:28.793Z,54.90
2018-06-05T09:42:57.184Z,55.30
2018-06-05T09:45:25.442Z,55.00
2018-06-05T09:47:53.801Z,55.20
2018-06-05T09:50:22.194Z,55.20
2018-06-05T09:52:50.450Z,55.80
2018-06-05T09:55:18.782Z,56.20
2018-06-05T09:57:47.340Z,56.50
2018-06-05T10:00:15.575Z,56.60
2018-06-05T10:02:43.810Z,55.70
2018-06-05T10:05:12.096Z,55.70
2018-06-05T10:07:40.385Z,56.10
2018-06-05T10:10:08.751Z,56.60
2018-06-05T10:12:36.995Z,56.80
2018-06-05T10:15:05.210Z,57.30
2018-06-05T10:17:33.525Z,57.90
2018-06-05T10:20:01.800Z,58.40
2018-06-05T10:22:30.082Z,58.30
2018-06-05T10:24:58.287Z,57.90
2018-06-05T10:27:26.513Z,57.60
2018-06-05T10:32:22.746Z,58.20
2018-06-05T10:34:51.010Z,58.50
2018-06-05T10:37:19.214Z,58.90
2018-06-05T10:39:47.434Z,59.50
2018-06-05T10:42:15.813Z,58.80
2018-06-05T10:44:43.989Z,57.60
2018-06-05T10:47:12.289Z,57.20
2018-06-05T10:49:40.514Z,57.10
2018-06-05T10:52:08.826Z,57.40
2018-06-05T10:54:37.173Z,57.50
2018-06-05T10:57:05.500Z,57.60
2018-06-05T10:59:33.760Z,56.30
2018-06-05T11:02:02.176Z,56.50
2018-06-05T11:04:31.026Z,56.60
2018-06-05T11:06:59.297Z,56.30
2018-06-05T11:09:27.557Z,56.00
2018-06-05T11:11:55.816Z,55.80
2018-06-05T11:14:24.279Z,54.60
2018-06-05T11:16:52.536Z,52.70
2018-06-05T11:19:20.766Z,52.40
2018-06-05T11:21:48.997Z,53.20
2018-06-05T11:26:45.329Z,54.80
2018-06-05T11:29:13.598Z,55.30
2018-06-05T11:31:41.823Z,54.90
2018-06-05T11:34:10.109Z,55.90
2018-06-05T11:36:38.487Z,56.70
2018-06-05T11:39:08.196Z,57.40
2018-06-05T11:41:36.467Z,57.90
2018-06-05T11:44:04.787Z,56.20
2018-06-05T11:46:33.024Z,56.40
2018-06-05T11:49:01.376Z,56.50
2018-06-05T11:51:29.826Z,56.60
2018-06-05T11:53:58.104Z,56.40
2018-06-05T11:56:26.337Z,56.10
2018-06-05T11:58:54.723Z,55.90
2018-06-05T12:01:23.258Z,55.90
2018-06-05T12:03:51.558Z,56.40
2018-06-05T12:06:19.789Z,56.10
2018-06-05T12:08:48.042Z,55.40
2018-06-05T12:11:16.406Z,54.70
2018-06-05T12:13:44.640Z,55.30
2018-06-05T12:16:12.873Z,55.70
2018-06-05T12:18:41.089Z,56.20
2018-06-05T12:21:10.377Z,56.70
2018-06-05T12:23:39.199Z,56.90
2018-06-05T12:26:07.462Z,56.70
2018-06-05T12:28:35.738Z,57.30
2018-06-05T12:31:04.001Z,57.70
2018-06-05T12:33:32.222Z,57.50
2018-06-05T12:36:00.614Z,56.70
2018-06-05T12:38:28.872Z,56.00
2018-06-05T12:40:57.097Z,55.00
2018-06-05T12:43:25.341Z,55.20
2018-06-05T12:45:53.720Z,55.50
2018-06-05T12:48:21.961Z,54.70
2018-06-05T12:50:50.261Z,53.00
2018-06-05T12:53:18.506Z,50.20
2018-06-05T12:55:46.894Z,47.70
2018-06-05T12:58:15.445Z,45.40
2018-06-05T13:00:43.706Z,43.10
2018-06-05T13:03:11.999Z,42.70
2018-06-05T13:05:40.385Z,43.40
2018-06-05T13:08:10.553Z,43.20
2018-06-05T13:10:44.123Z,42.50
2018-06-05T13:13:12.378Z,43.60
2018-06-05T13:15:40.551Z,45.20
2018-06-05T13:18:08.991Z,45.70
2018-06-05T13:23:05.335Z,44.80
2018-06-05T13:25:33.510Z,43.60
2018-06-05T13:28:01.876Z,42.80
2018-06-05T13:30:30.244Z,41.80
2018-06-05T13:32:58.518Z,40.90
2018-06-05T13:35:26.775Z,40.40
2018-06-05T13:37:55.047Z,41.20
2018-06-05T13:40:24.250Z,42.70
2018-06-05T13:42:53.514Z,44.50
2018-06-05T13:45:21.768Z,46.10
2018-06-05T13:47:50.029Z,47.30
2018-06-05T13:50:18.326Z,48.80
2018-06-05T13:52:47.573Z,49.60
2018-06-05T13:55:15.846Z,49.60
2018-06-05T13:57:44.095Z,49.70
2018-06-05T14:00:12.326Z,48.60
2018-06-05T14:02:40.574Z,46.20
2018-06-05T14:05:08.902Z,45.70
2018-06-05T14:07:37.136Z,46.20
2018-06-05T14:10:05.459Z,46.70
2018-06-05T14:12:33.748Z,47.50
2018-06-05T14:15:02.574Z,48.20
2018-06-05T14:17:31.393Z,49.00
2018-06-05T14:19:59.705Z,49.90
2018-06-05T14:22:28.047Z,50.00
2018-06-05T14:24:56.277Z,50.30
2018-06-05T14:27:24.569Z,50.60
2018-06-05T14:29:53.169Z,50.40
2018-06-05T14:32:21.440Z,50.40
2018-06-05T14:34:49.697Z,50.30
2018-06-05T14:37:17.997Z,50.00
2018-06-05T14:39:46.999Z,49.80
2018-06-05T14:42:15.802Z,50.60
2018-06-05T14:44:44.825Z,50.20
2018-06-05T14:47:13.069Z,50.30
2018-06-05T14:49:41.322Z,51.00
2018-06-05T14:52:09.714Z,50.90
2018-06-05T14:54:38.387Z,50.50
2018-06-05T14:57:06.792Z,50.80
2018-06-05T14:59:35.028Z,51.20
2018-06-05T15:02:03.482Z,51.90
2018-06-05T15:04:32.065Z,52.40
2018-06-05T15:09:29.920Z,50.60
2018-06-05T15:11:58.142Z,50.90
2018-06-05T15:14:26.519Z,51.10
2018-06-05T15:16:55.029Z,51.20
2018-06-05T15:19:23.863Z,51.20
2018-06-05T15:21:52.934Z,51.20
2018-06-05T15:24:21.164Z,49.90
2018-06-05T15:26:49.411Z,49.40
2018-06-05T15:29:18.677Z,49.00
2018-06-05T15:31:47.268Z,48.10
2018-06-05T15:34:15.559Z,47.10
2018-06-05T15:36:43.798Z,47.40
2018-06-05T15:39:12.045Z,48.00
2018-06-05T15:41:40.287Z,48.20
2018-06-05T15:44:08.743Z,48.40
2018-06-05T15:46:37.090Z,47.20
2018-06-05T15:49:05.303Z,45.60
2018-06-05T15:51:33.553Z,45.40
2018-06-05T15:54:01.843Z,44.50
2018-06-05T15:56:30.297Z,43.90
2018-06-05T15:58:58.640Z,43.20
2018-06-05T16:01:26.873Z,42.50
2018-06-05T16:03:55.118Z,41.40
2018-06-05T16:06:24.258Z,40.10
2018-06-05T16:08:52.650Z,39.10
2018-06-05T16:11:20.910Z,38.30
2018-06-05T16:13:49.155Z,37.50
2018-06-05T16:18:45.584Z,36.80
2018-06-05T16:21:13.841Z,36.30
2018-06-05T16:23:42.316Z,35.80
2018-06-05T16:26:10.601Z,35.60
2018-06-05T16:28:39.523Z,35.00
2018-06-05T16:33:36.167Z,34.30
2018-06-05T16:36:04.390Z,34.00
2018-06-05T16:38:32.678Z,33.50
2018-06-05T16:41:01.125Z,33.00
2018-06-05T16:43:29.409Z,32.70
2018-06-05T16:45:57.774Z,32.70
2018-06-05T16:48:26.018Z,32.60
2018-06-05T16:50:54.589Z,32.60
2018-06-05T16:53:23.258Z,32.70
2018-06-05T16:55:51.507Z,32.80
2018-06-05T17:00:47.838Z,32.50
2018-06-05T17:03:16.862Z,32.50
2018-06-05T17:05:45.222Z,32.00
2018-06-05T17:08:13.554Z,31.70
2018-06-05T17:10:41.853Z,31.60
2018-06-05T17:13:10.461Z,31.50
2018-06-05T17:15:39.358Z,31.40
2018-06-05T17:18:07.913Z,31.10
2018-06-05T17:20:36.165Z,30.90
2018-06-05T17:23:04.493Z,30.80
2018-06-05T17:25:32.747Z,30.70
2018-06-05T17:28:02.070Z,30.70
2018-06-05T17:30:30.517Z,30.50
2018-06-05T17:32:58.798Z,30.50
2018-06-05T17:35:27.153Z,30.50
2018-06-05T17:37:55.552Z,30.20
2018-06-05T17:40:24.040Z,30.10
2018-06-05T17:42:52.935Z,30.00
2018-06-05T17:45:21.203Z,29.90
2018-06-05T17:47:49.462Z,29.70
2018-06-05T17:50:18.017Z,29.50
2018-06-05T17:52:46.814Z,29.60
2018-06-05T17:55:15.913Z,29.40
2018-06-05T17:57:44.573Z,29.30
2018-06-05T18:00:12.844Z,29.20
2018-06-05T18:02:41.153Z,29.20
2018-06-05T18:05:10.046Z,29.20
2018-06-05T18:07:38.513Z,29.00
2018-06-05T18:10:06.821Z,29.00
2018-06-05T18:12:35.091Z,28.90
2018-06-05T18:15:03.345Z,29.10
2018-06-05T18:17:31.739Z,29.00
2018-06-05T18:20:00.088Z,28.80
2018-06-05T18:22:28.426Z,28.80
2018-06-05T18:24:56.696Z,28.80
2018-06-05T18:29:53.284Z,28.60
2018-06-05T18:32:21.534Z,28.50
2018-06-05T18:34:49.882Z,28.70
2018-06-05T18:37:18.158Z,28.80
2018-06-05T18:39:46.515Z,28.70
2018-06-05T18:42:14.769Z,28.70
2018-06-05T18:44:43.017Z,28.80
2018-06-05T18:47:11.301Z,28.90
2018-06-05T18:49:39.789Z,28.90
2018-06-05T18:52:08.107Z,28.80
2018-06-05T18:54:36.341Z,28.70
2018-06-05T18:57:04.647Z,28.40
2018-06-05T18:59:32.924Z,28.40
2018-06-05T19:02:01.277Z,27.90
2018-06-05T19:04:29.613Z,27.80
2018-06-05T19:06:57.965Z,27.80
2018-06-05T19:09:27.628Z,27.80
2018-06-05T19:11:56.583Z,27.60
2018-06-05T19:14:24.983Z,27.60
2018-06-05T19:16:53.350Z,27.60
2018-06-05T19:19:21.595Z,27.60
2018-06-05T19:21:50.006Z,27.40
2018-06-05T19:24:18.267Z,27.20
2018-06-05T19:29:21.118Z,27.30
2018-06-05T19:31:49.574Z,27.10
2018-06-05T19:34:18.495Z,27.20
2018-06-05T19:36:46.786Z,27.10
2018-06-05T19:39:15.147Z,27.10
2018-06-05T19:41:45.798Z,27.20
2018-06-05T19:44:14.079Z,27.00
2018-06-05T19:46:42.374Z,27.10
2018-06-05T19:49:10.678Z,27.00
2018-06-05T19:51:39.048Z,27.10
2018-06-05T19:54:07.344Z,27.00
2018-06-05T19:56:35.594Z,26.90
2018-06-05T19:59:03.936Z,26.80
2018-06-05T20:01:32.242Z,26.70
2018-06-05T20:04:00.596Z,26.60
2018-06-05T20:06:29.288Z,26.70
2018-06-05T20:09:10.261Z,26.70
2018-06-05T20:12:07.070Z,26.80
2018-06-05T20:14:35.341Z,26.70
2018-06-05T20:17:05.121Z,26.70
2018-06-05T20:19:33.418Z,26.60
2018-06-05T20:22:02.812Z,26.60
2018-06-05T20:24:31.854Z,26.50
2018-06-05T20:27:00.506Z,26.40
2018-06-05T20:29:28.754Z,26.30
2018-06-05T20:31:57.061Z,26.40
2018-06-05T20:34:25.399Z,26.40
2018-06-05T20:36:53.795Z,26.20
2018-06-05T20:41:50.100Z,25.90
2018-06-05T20:44:18.349Z,25.90
2018-06-05T20:46:46.788Z,26.00
2018-06-05T20:49:15.081Z,25.90
2018-06-05T20:51:43.590Z,26.00
2018-06-05T20:54:12.253Z,26.00
2018-06-05T20:56:40.485Z,26.10
2018-06-05T20:59:08.819Z,26.00
2018-06-05T21:01:37.153Z,25.70
2018-06-05T21:04:05.763Z,25.50
2018-06-05T21:06:33.998Z,25.40
2018-06-05T21:09:02.446Z,25.30
2018-06-05T21:11:30.780Z,25.30
2018-06-05T21:13:59.147Z,25.40
2018-06-05T21:16:27.437Z,25.30
2018-06-05T21:18:55.689Z,25.40
2018-06-05T21:21:24.251Z,25.40
2018-06-05T21:23:52.606Z,25.30
2018-06-05T21:26:20.954Z,25.40
2018-06-05T21:28:49.346Z,25.30
2018-06-05T21:31:18.138Z,25.30
2018-06-05T21:36:15.312Z,25.10
2018-06-05T21:38:43.705Z,24.90
2018-06-05T21:41:11.973Z,24.90
2018-06-05T21:43:40.307Z,25.00
2018-06-05T21:46:08.679Z,24.90
2018-06-05T21:48:37.070Z,24.80
2018-06-05T21:51:05.311Z,24.70
2018-06-05T21:53:33.583Z,24.80
2018-06-05T21:56:02.418Z,24.80
2018-06-05T21:58:30.814Z,24.70
2018-06-05T22:00:59.066Z,24.60
2018-06-05T22:03:27.290Z,24.60
2018-06-05T22:05:55.512Z,24.40
2018-06-05T22:08:24.564Z,24.40
2018-06-05T22:10:53.118Z,24.50
2018-06-05T22:13:22.015Z,24.40
2018-06-05T22:15:50.403Z,24.40
2018-06-05T22:18:18.693Z,24.40
2018-06-05T22:20:48.113Z,24.40
2018-06-05T22:23:16.379Z,24.30
2018-06-05T22:25:45.058Z,24.30
2018-06-05T22:28:13.373Z,24.20
2018-06-05T22:30:41.663Z,24.20
2018-06-05T22:33:10.072Z,24.20
2018-06-05T22:35:38.367Z,24.10
2018-06-05T22:38:06.645Z,24.10
2018-06-05T22:40:34.987Z,23.90
2018-06-05T22:43:03.336Z,23.90
2018-06-05T22:45:31.719Z,23.90
2018-06-05T22:47:59.989Z,23.90
2018-06-05T22:50:28.291Z,23.80
2018-06-05T22:52:56.543Z,23.90
2018-06-05T22:55:24.878Z,23.80
2018-06-05T22:57:53.814Z,23.90
2018-06-05T23:00:27.971Z,23.90
2018-06-05T23:02:56.362Z,23.80
2018-06-05T23:05:25.746Z,23.90
2018-06-05T23:07:54.330Z,23.90
2018-06-05T23:10:22.758Z,23.80
2018-06-05T23:12:51.132Z,23.80
2018-06-05T23:15:19.380Z,23.80
2018-06-05T23:17:48.742Z,23.80
2018-06-05T23:20:17.205Z,23.60
2018-06-05T23:22:46.256Z,23.70
2018-06-05T23:25:14.482Z,23.70
2018-06-05T23:27:42.722Z,23.80
2018-06-05T23:30:10.989Z,23.80
2018-06-05T23:32:39.335Z,23.70
2018-06-05T23:35:07.590Z,23.70
2018-06-05T23:37:35.821Z,23.70
2018-06-05T23:40:04.293Z,23.60
2018-06-05T23:42:33.661Z,23.50
2018-06-05T23:45:02.530Z,23.60
2018-06-05T23:47:30.848Z,23.50
2018-06-05T23:49:59.073Z,23.50
2018-06-05T23:52:27.315Z,23.30
2018-06-05T23:54:55.575Z,23.30
2018-06-05T23:57:24.390Z,23.20
2018-06-05T23:59:52.701Z,23.30
